sensor_id;sensor_type;location;lat;lon;timestamp;pressure;altitude;pressure_sealevel;temperature;humidity
19827;BME280;10074;52.018;4.726;2023-02-19T00:03:04;46467.88;;;-144.79;100.00
19827;BME280;10074;52.018;4.726;2023-02-19T00:08:05;46473.91;;;-144.79;100.00
19827;BME280;10074;52.018;4.726;2023-02-19T00:13:05;46469.88;;;-144.79;100.00
19827;BME280;10074;52.018;4.726;2023-02-19T00:18:05;46469.88;;;-144.79;100.00
19827;BME280;10074;52.018;4.726;2023-02-19T00:23:06;46475.91;;;-144.79;100.00
19827;BME280;10074;52.018;4.726;2023-02-19T00:28:06;46473.91;;;-144.79;100.00
19827;BME280;10074;52.018;4.726;2023-02-19T00:33:06;46469.88;;;-144.79;100.00
19827;BME280;10074;52.018;4.726;2023-02-19T00:38:07;46471.91;;;-144.79;100.00
19827;BME280;10074;52.018;4.726;2023-02-19T00:43:08;46473.91;;;-144.79;100.00
19827;BME280;10074;52.018;4.726;2023-02-19T00:48:08;46467.88;;;-144.79;100.00
19827;BME280;10074;52.018;4.726;2023-02-19T00:53:09;46467.88;;;-144.79;100.00
19827;BME280;10074;52.018;4.726;2023-02-19T00:58:09;46471.91;;;-144.79;100.00
19827;BME280;10074;52.018;4.726;2023-02-19T01:03:10;46469.88;;;-144.79;100.00
19827;BME280;10074;52.018;4.726;2023-02-19T01:08:10;46471.91;;;-144.79;100.00
19827;BME280;10074;52.018;4.726;2023-02-19T01:13:11;46467.88;;;-144.79;100.00
19827;BME280;10074;52.018;4.726;2023-02-19T01:18:11;46475.91;;;-144.79;100.00
19827;BME280;10074;52.018;4.726;2023-02-19T01:23:12;46469.88;;;-144.79;100.00
19827;BME280;10074;52.018;4.726;2023-02-19T01:28:13;46473.91;;;-144.79;100.00
19827;BME280;10074;52.018;4.726;2023-02-19T01:33:13;46471.91;;;-144.79;100.00
19827;BME280;10074;52.018;4.726;2023-02-19T01:38:14;46469.88;;;-144.79;100.00
19827;BME280;10074;52.018;4.726;2023-02-19T01:43:14;46471.91;;;-144.79;100.00
19827;BME280;10074;52.018;4.726;2023-02-19T01:48:29;46469.88;;;-144.79;100.00
19827;BME280;10074;52.018;4.726;2023-02-19T01:53:33;46471.91;;;-144.79;100.00
19827;BME280;10074;52.018;4.726;2023-02-19T01:58:36;46471.91;;;-144.79;100.00
19827;BME280;10074;52.018;4.726;2023-02-19T02:03:39;46467.88;;;-144.79;100.00
19827;BME280;10074;52.018;4.726;2023-02-19T02:08:41;46469.88;;;-144.79;100.00
19827;BME280;10074;52.018;4.726;2023-02-19T02:14:00;46471.91;;;-144.79;100.00
19827;BME280;10074;52.018;4.726;2023-02-19T02:29:53;46469.88;;;-144.79;100.00
19827;BME280;10074;52.018;4.726;2023-02-19T02:35:08;46473.91;;;-144.79;100.00
19827;BME280;10074;52.018;4.726;2023-02-19T02:40:10;46471.91;;;-144.79;100.00
19827;BME280;10074;52.018;4.726;2023-02-19T02:50:51;46473.91;;;-144.79;100.00
19827;BME280;10074;52.018;4.726;2023-02-19T02:55:53;46473.91;;;-144.79;100.00
19827;BME280;10074;52.018;4.726;2023-02-19T03:01:00;46467.88;;;-144.79;100.00
19827;BME280;10074;52.018;4.726;2023-02-19T03:06:21;46471.91;;;-144.79;100.00
19827;BME280;10074;52.018;4.726;2023-02-19T03:11:23;46479.91;;;-144.79;100.00
19827;BME280;10074;52.018;4.726;2023-02-19T03:16:44;46473.91;;;-144.79;100.00
19827;BME280;10074;52.018;4.726;2023-02-19T03:22:14;46475.91;;;-144.79;100.00
19827;BME280;10074;52.018;4.726;2023-02-19T03:27:17;46469.88;;;-144.79;100.00
19827;BME280;10074;52.018;4.726;2023-02-19T03:32:34;46467.88;;;-144.79;100.00
19827;BME280;10074;52.018;4.726;2023-02-19T03:37:43;46469.88;;;-144.79;100.00
19827;BME280;10074;52.018;4.726;2023-02-19T03:43:16;46471.91;;;-144.79;100.00
19827;BME280;10074;52.018;4.726;2023-02-19T03:48:26;46473.91;;;-144.79;100.00
19827;BME280;10074;52.018;4.726;2023-02-19T03:59:00;46475.91;;;-144.79;100.00
19827;BME280;10074;52.018;4.726;2023-02-19T04:04:24;46471.91;;;-144.79;100.00
19827;BME280;10074;52.018;4.726;2023-02-19T04:09:38;46473.91;;;-144.79;100.00
19827;BME280;10074;52.018;4.726;2023-02-19T04:14:48;46467.88;;;-144.79;100.00
19827;BME280;10074;52.018;4.726;2023-02-19T04:19:51;46475.91;;;-144.79;100.00
19827;BME280;10074;52.018;4.726;2023-02-19T04:24:52;46475.91;;;-144.79;100.00
19827;BME280;10074;52.018;4.726;2023-02-19T04:29:54;46469.88;;;-144.79;100.00
19827;BME280;10074;52.018;4.726;2023-02-19T04:34:54;46467.88;;;-144.79;100.00
19827;BME280;10074;52.018;4.726;2023-02-19T04:39:55;46471.91;;;-144.79;100.00
19827;BME280;10074;52.018;4.726;2023-02-19T04:44:55;46473.91;;;-144.79;100.00
19827;BME280;10074;52.018;4.726;2023-02-19T04:49:56;46471.91;;;-144.79;100.00
19827;BME280;10074;52.018;4.726;2023-02-19T04:54:56;46471.91;;;-144.79;100.00
19827;BME280;10074;52.018;4.726;2023-02-19T04:59:57;46475.91;;;-144.79;100.00
19827;BME280;10074;52.018;4.726;2023-02-19T05:04:57;46471.91;;;-144.79;100.00
19827;BME280;10074;52.018;4.726;2023-02-19T05:09:57;46471.91;;;-144.79;100.00
19827;BME280;10074;52.018;4.726;2023-02-19T05:14:58;46467.88;;;-144.79;100.00
19827;BME280;10074;52.018;4.726;2023-02-19T05:19:59;46477.91;;;-144.79;100.00
19827;BME280;10074;52.018;4.726;2023-02-19T05:24:59;46469.88;;;-144.79;100.00
19827;BME280;10074;52.018;4.726;2023-02-19T05:30:00;46473.91;;;-144.79;100.00
19827;BME280;10074;52.018;4.726;2023-02-19T05:35:00;46471.91;;;-144.79;100.00
19827;BME280;10074;52.018;4.726;2023-02-19T05:40:00;46467.88;;;-144.79;100.00
19827;BME280;10074;52.018;4.726;2023-02-19T05:45:01;46469.88;;;-144.79;100.00
19827;BME280;10074;52.018;4.726;2023-02-19T05:50:01;46467.88;;;-144.79;100.00
19827;BME280;10074;52.018;4.726;2023-02-19T05:55:01;46471.91;;;-144.79;100.00
19827;BME280;10074;52.018;4.726;2023-02-19T06:00:02;46471.91;;;-144.79;100.00
19827;BME280;10074;52.018;4.726;2023-02-19T06:05:03;46467.88;;;-144.79;100.00
19827;BME280;10074;52.018;4.726;2023-02-19T06:10:05;46471.91;;;-144.79;100.00
19827;BME280;10074;52.018;4.726;2023-02-19T06:15:06;46475.91;;;-144.79;100.00
19827;BME280;10074;52.018;4.726;2023-02-19T06:20:06;46467.88;;;-144.79;100.00
19827;BME280;10074;52.018;4.726;2023-02-19T06:25:07;46471.91;;;-144.79;100.00
19827;BME280;10074;52.018;4.726;2023-02-19T06:30:11;46475.91;;;-144.79;100.00
19827;BME280;10074;52.018;4.726;2023-02-19T06:35:12;46467.88;;;-144.79;100.00
19827;BME280;10074;52.018;4.726;2023-02-19T06:40:13;46469.88;;;-144.79;100.00
19827;BME280;10074;52.018;4.726;2023-02-19T06:45:13;46469.88;;;-144.79;100.00
19827;BME280;10074;52.018;4.726;2023-02-19T06:50:14;46471.91;;;-144.79;100.00
19827;BME280;10074;52.018;4.726;2023-02-19T06:55:15;46471.91;;;-144.79;100.00
19827;BME280;10074;52.018;4.726;2023-02-19T07:00:15;46473.91;;;-144.79;100.00
19827;BME280;10074;52.018;4.726;2023-02-19T07:05:16;46471.91;;;-144.79;100.00
19827;BME280;10074;52.018;4.726;2023-02-19T07:10:16;46471.91;;;-144.79;100.00
19827;BME280;10074;52.018;4.726;2023-02-19T07:15:17;46471.91;;;-144.79;100.00
19827;BME280;10074;52.018;4.726;2023-02-19T07:20:17;46467.88;;;-144.79;100.00
19827;BME280;10074;52.018;4.726;2023-02-19T07:25:17;46471.91;;;-144.79;100.00
19827;BME280;10074;52.018;4.726;2023-02-19T07:30:18;46467.88;;;-144.79;100.00
19827;BME280;10074;52.018;4.726;2023-02-19T07:35:18;46471.91;;;-144.79;100.00
19827;BME280;10074;52.018;4.726;2023-02-19T07:40:19;46471.91;;;-144.79;100.00
19827;BME280;10074;52.018;4.726;2023-02-19T07:45:19;46469.88;;;-144.79;100.00
19827;BME280;10074;52.018;4.726;2023-02-19T07:50:19;46467.88;;;-144.79;100.00
19827;BME280;10074;52.018;4.726;2023-02-19T07:55:20;46463.88;;;-144.79;100.00
19827;BME280;10074;52.018;4.726;2023-02-19T08:00:20;46463.88;;;-144.79;100.00
19827;BME280;10074;52.018;4.726;2023-02-19T08:05:20;46455.84;;;-144.79;100.00
19827;BME280;10074;52.018;4.726;2023-02-19T08:10:21;46459.88;;;-144.79;100.00
19827;BME280;10074;52.018;4.726;2023-02-19T08:15:41;46463.88;;;-144.79;100.00
19827;BME280;10074;52.018;4.726;2023-02-19T08:20:42;46453.84;;;-144.79;100.00
19827;BME280;10074;52.018;4.726;2023-02-19T08:25:42;46459.88;;;-144.79;100.00
19827;BME280;10074;52.018;4.726;2023-02-19T08:30:44;46459.88;;;-144.79;100.00
19827;BME280;10074;52.018;4.726;2023-02-19T08:35:45;46459.88;;;-144.79;100.00
19827;BME280;10074;52.018;4.726;2023-02-19T08:40:45;46457.88;;;-144.79;100.00
19827;BME280;10074;52.018;4.726;2023-02-19T08:45:46;46463.88;;;-144.79;100.00
19827;BME280;10074;52.018;4.726;2023-02-19T08:50:57;46461.88;;;-144.79;100.00
19827;BME280;10074;52.018;4.726;2023-02-19T08:55:58;46463.88;;;-144.79;100.00
19827;BME280;10074;52.018;4.726;2023-02-19T09:00:58;46469.88;;;-144.79;100.00
19827;BME280;10074;52.018;4.726;2023-02-19T09:05:58;46469.88;;;-144.79;100.00
19827;BME280;10074;52.018;4.726;2023-02-19T09:11:00;46467.88;;;-144.79;100.00
19827;BME280;10074;52.018;4.726;2023-02-19T09:16:02;46471.91;;;-144.79;100.00
19827;BME280;10074;52.018;4.726;2023-02-19T09:21:04;46467.88;;;-144.79;100.00
19827;BME280;10074;52.018;4.726;2023-02-19T09:26:06;46469.88;;;-144.79;100.00
19827;BME280;10074;52.018;4.726;2023-02-19T09:31:11;46469.88;;;-144.79;100.00
19827;BME280;10074;52.018;4.726;2023-02-19T09:36:13;46467.88;;;-144.79;100.00
19827;BME280;10074;52.018;4.726;2023-02-19T09:41:25;46467.88;;;-144.79;100.00
19827;BME280;10074;52.018;4.726;2023-02-19T09:46:44;46469.88;;;-144.79;100.00
19827;BME280;10074;52.018;4.726;2023-02-19T09:51:51;46467.88;;;-144.79;100.00
19827;BME280;10074;52.018;4.726;2023-02-19T09:56:54;46465.88;;;-144.79;100.00
19827;BME280;10074;52.018;4.726;2023-02-19T10:02:00;46459.88;;;-144.79;100.00
19827;BME280;10074;52.018;4.726;2023-02-19T10:07:02;46469.88;;;-144.79;100.00
19827;BME280;10074;52.018;4.726;2023-02-19T10:12:12;46463.88;;;-144.79;100.00
19827;BME280;10074;52.018;4.726;2023-02-19T10:17:22;46465.88;;;-144.79;100.00
19827;BME280;10074;52.018;4.726;2023-02-19T10:22:24;46467.88;;;-144.79;100.00
19827;BME280;10074;52.018;4.726;2023-02-19T10:27:30;46467.88;;;-144.79;100.00
19827;BME280;10074;52.018;4.726;2023-02-19T10:32:31;46467.88;;;-144.79;100.00
19827;BME280;10074;52.018;4.726;2023-02-19T10:37:32;46473.91;;;-144.79;100.00
19827;BME280;10074;52.018;4.726;2023-02-19T10:42:32;46475.91;;;-144.79;100.00
19827;BME280;10074;52.018;4.726;2023-02-19T10:47:32;46467.88;;;-144.79;100.00
19827;BME280;10074;52.018;4.726;2023-02-19T10:52:34;46465.88;;;-144.79;100.00
19827;BME280;10074;52.018;4.726;2023-02-19T10:57:35;46471.91;;;-144.79;100.00
19827;BME280;10074;52.018;4.726;2023-02-19T11:02:36;46465.88;;;-144.79;100.00
19827;BME280;10074;52.018;4.726;2023-02-19T11:07:51;46471.91;;;-144.79;100.00
19827;BME280;10074;52.018;4.726;2023-02-19T11:12:56;46467.88;;;-144.79;100.00
19827;BME280;10074;52.018;4.726;2023-02-19T11:18:30;46467.88;;;-144.79;100.00
19827;BME280;10074;52.018;4.726;2023-02-19T11:23:34;46473.91;;;-144.79;100.00
19827;BME280;10074;52.018;4.726;2023-02-19T11:28:39;46469.88;;;-144.79;100.00
19827;BME280;10074;52.018;4.726;2023-02-19T11:38:54;46469.88;;;-144.79;100.00
19827;BME280;10074;52.018;4.726;2023-02-19T11:44:17;46469.88;;;-144.79;100.00
19827;BME280;10074;52.018;4.726;2023-02-19T11:54:54;46473.91;;;-144.79;100.00
19827;BME280;10074;52.018;4.726;2023-02-19T12:00:25;46465.88;;;-144.79;100.00
19827;BME280;10074;52.018;4.726;2023-02-19T12:05:35;46467.88;;;-144.79;100.00
19827;BME280;10074;52.018;4.726;2023-02-19T12:26:27;46469.88;;;-144.79;100.00
19827;BME280;10074;52.018;4.726;2023-02-19T12:37:31;46469.88;;;-144.79;100.00
19827;BME280;10074;52.018;4.726;2023-02-19T12:43:04;46467.88;;;-144.79;100.00
19827;BME280;10074;52.018;4.726;2023-02-19T12:48:11;46471.91;;;-144.79;100.00
19827;BME280;10074;52.018;4.726;2023-02-19T12:58:36;46467.88;;;-144.79;100.00
19827;BME280;10074;52.018;4.726;2023-02-19T13:03:43;46471.91;;;-144.79;100.00
19827;BME280;10074;52.018;4.726;2023-02-19T13:08:52;46467.88;;;-144.79;100.00
19827;BME280;10074;52.018;4.726;2023-02-19T13:13:57;46471.91;;;-144.79;100.00
19827;BME280;10074;52.018;4.726;2023-02-19T13:19:01;46467.88;;;-144.79;100.00
19827;BME280;10074;52.018;4.726;2023-02-19T13:24:49;46473.91;;;-144.79;100.00
19827;BME280;10074;52.018;4.726;2023-02-19T13:29:53;46473.91;;;-144.79;100.00
19827;BME280;10074;52.018;4.726;2023-02-19T13:40:31;46467.88;;;-144.79;100.00
19827;BME280;10074;52.018;4.726;2023-02-19T13:45:38;46471.91;;;-144.79;100.00
19827;BME280;10074;52.018;4.726;2023-02-19T13:50:40;46469.88;;;-144.79;100.00
19827;BME280;10074;52.018;4.726;2023-02-19T14:00:51;46469.88;;;-144.79;100.00
19827;BME280;10074;52.018;4.726;2023-02-19T14:06:02;46467.88;;;-144.79;100.00
19827;BME280;10074;52.018;4.726;2023-02-19T14:11:05;46471.91;;;-144.79;100.00
19827;BME280;10074;52.018;4.726;2023-02-19T14:21:38;46471.91;;;-144.79;100.00
19827;BME280;10074;52.018;4.726;2023-02-19T14:26:39;46469.88;;;-144.79;100.00
19827;BME280;10074;52.018;4.726;2023-02-19T14:31:43;46467.88;;;-144.79;100.00
19827;BME280;10074;52.018;4.726;2023-02-19T14:36:47;46471.91;;;-144.79;100.00
19827;BME280;10074;52.018;4.726;2023-02-19T14:41:54;46463.88;;;-144.79;100.00
19827;BME280;10074;52.018;4.726;2023-02-19T14:46:58;46467.88;;;-144.79;100.00
19827;BME280;10074;52.018;4.726;2023-02-19T14:52:08;46471.91;;;-144.79;100.00
19827;BME280;10074;52.018;4.726;2023-02-19T14:57:16;46469.88;;;-144.79;100.00
19827;BME280;10074;52.018;4.726;2023-02-19T15:02:17;46467.88;;;-144.79;100.00
19827;BME280;10074;52.018;4.726;2023-02-19T15:07:29;46471.91;;;-144.79;100.00
19827;BME280;10074;52.018;4.726;2023-02-19T15:12:55;46467.88;;;-144.79;100.00
19827;BME280;10074;52.018;4.726;2023-02-19T15:17:57;46469.88;;;-144.79;100.00
19827;BME280;10074;52.018;4.726;2023-02-19T15:22:59;46469.88;;;-144.79;100.00
19827;BME280;10074;52.018;4.726;2023-02-19T15:33:26;46467.88;;;-144.79;100.00
19827;BME280;10074;52.018;4.726;2023-02-19T15:38:27;46467.88;;;-144.79;100.00
19827;BME280;10074;52.018;4.726;2023-02-19T15:43:45;46467.88;;;-144.79;100.00
19827;BME280;10074;52.018;4.726;2023-02-19T15:49:21;46467.88;;;-144.79;100.00
19827;BME280;10074;52.018;4.726;2023-02-19T15:54:26;46467.88;;;-144.79;100.00
19827;BME280;10074;52.018;4.726;2023-02-19T15:59:37;46467.88;;;-144.79;100.00
19827;BME280;10074;52.018;4.726;2023-02-19T16:04:42;46465.88;;;-144.79;100.00
19827;BME280;10074;52.018;4.726;2023-02-19T16:09:43;46465.88;;;-144.79;100.00
19827;BME280;10074;52.018;4.726;2023-02-19T16:14:43;46469.88;;;-144.79;100.00
19827;BME280;10074;52.018;4.726;2023-02-19T16:24:49;46471.91;;;-144.79;100.00
19827;BME280;10074;52.018;4.726;2023-02-19T16:29:50;46467.88;;;-144.79;100.00
19827;BME280;10074;52.018;4.726;2023-02-19T16:34:51;46471.91;;;-144.79;100.00
19827;BME280;10074;52.018;4.726;2023-02-19T16:40:26;46467.88;;;-144.79;100.00
19827;BME280;10074;52.018;4.726;2023-02-19T16:45:24;46473.91;;;-144.79;100.00
19827;BME280;10074;52.018;4.726;2023-02-19T16:50:24;46467.88;;;-144.79;100.00
19827;BME280;10074;52.018;4.726;2023-02-19T16:55:27;46469.88;;;-144.79;100.00
19827;BME280;10074;52.018;4.726;2023-02-19T17:00:29;46469.88;;;-144.79;100.00
19827;BME280;10074;52.018;4.726;2023-02-19T17:05:30;46469.88;;;-144.79;100.00
19827;BME280;10074;52.018;4.726;2023-02-19T17:10:31;46471.91;;;-144.79;100.00
19827;BME280;10074;52.018;4.726;2023-02-19T17:15:32;46467.88;;;-144.79;100.00
19827;BME280;10074;52.018;4.726;2023-02-19T17:20:33;46469.88;;;-144.79;100.00
19827;BME280;10074;52.018;4.726;2023-02-19T17:25:35;46467.88;;;-144.79;100.00
19827;BME280;10074;52.018;4.726;2023-02-19T17:30:35;46471.91;;;-144.79;100.00
19827;BME280;10074;52.018;4.726;2023-02-19T17:35:35;46467.88;;;-144.79;100.00
19827;BME280;10074;52.018;4.726;2023-02-19T17:40:36;46469.88;;;-144.79;100.00
19827;BME280;10074;52.018;4.726;2023-02-19T17:45:37;46467.88;;;-144.79;100.00
19827;BME280;10074;52.018;4.726;2023-02-19T17:50:39;46465.88;;;-144.79;100.00
19827;BME280;10074;52.018;4.726;2023-02-19T17:55:39;46467.88;;;-144.79;100.00
19827;BME280;10074;52.018;4.726;2023-02-19T18:00:40;46469.88;;;-144.79;100.00
19827;BME280;10074;52.018;4.726;2023-02-19T18:05:40;46469.88;;;-144.79;100.00
19827;BME280;10074;52.018;4.726;2023-02-19T18:10:41;46467.88;;;-144.79;100.00
19827;BME280;10074;52.018;4.726;2023-02-19T18:15:41;46465.88;;;-144.79;100.00
19827;BME280;10074;52.018;4.726;2023-02-19T18:20:41;46471.91;;;-144.79;100.00
19827;BME280;10074;52.018;4.726;2023-02-19T18:25:41;46467.88;;;-144.79;100.00
19827;BME280;10074;52.018;4.726;2023-02-19T18:30:42;46465.88;;;-144.79;100.00
19827;BME280;10074;52.018;4.726;2023-02-19T18:35:42;46467.88;;;-144.79;100.00
19827;BME280;10074;52.018;4.726;2023-02-19T18:40:43;46467.88;;;-144.79;100.00
19827;BME280;10074;52.018;4.726;2023-02-19T18:45:43;46461.88;;;-144.79;100.00
19827;BME280;10074;52.018;4.726;2023-02-19T18:50:45;46469.88;;;-144.79;100.00
19827;BME280;10074;52.018;4.726;2023-02-19T18:55:45;46467.88;;;-144.79;100.00
19827;BME280;10074;52.018;4.726;2023-02-19T19:00:46;46467.88;;;-144.79;100.00
19827;BME280;10074;52.018;4.726;2023-02-19T19:05:46;46467.88;;;-144.79;100.00
19827;BME280;10074;52.018;4.726;2023-02-19T19:10:47;46471.91;;;-144.79;100.00
19827;BME280;10074;52.018;4.726;2023-02-19T19:15:50;46467.88;;;-144.79;100.00
19827;BME280;10074;52.018;4.726;2023-02-19T19:20:52;46465.88;;;-144.79;100.00
19827;BME280;10074;52.018;4.726;2023-02-19T19:25:55;46469.88;;;-144.79;100.00
19827;BME280;10074;52.018;4.726;2023-02-19T19:30:56;46467.88;;;-144.79;100.00
19827;BME280;10074;52.018;4.726;2023-02-19T19:35:56;46467.88;;;-144.79;100.00
19827;BME280;10074;52.018;4.726;2023-02-19T19:40:57;46463.88;;;-144.79;100.00
19827;BME280;10074;52.018;4.726;2023-02-19T19:45:57;46465.88;;;-144.79;100.00
19827;BME280;10074;52.018;4.726;2023-02-19T19:50:58;46463.88;;;-144.79;100.00
19827;BME280;10074;52.018;4.726;2023-02-19T19:55:59;46465.88;;;-144.79;100.00
19827;BME280;10074;52.018;4.726;2023-02-19T20:01:00;46465.88;;;-144.79;100.00
19827;BME280;10074;52.018;4.726;2023-02-19T20:06:00;46463.88;;;-144.79;100.00
19827;BME280;10074;52.018;4.726;2023-02-19T20:11:02;46459.88;;;-144.79;100.00
19827;BME280;10074;52.018;4.726;2023-02-19T20:16:02;46463.88;;;-144.79;100.00
19827;BME280;10074;52.018;4.726;2023-02-19T20:21:03;46463.88;;;-144.79;100.00
19827;BME280;10074;52.018;4.726;2023-02-19T20:26:04;46461.88;;;-144.79;100.00
19827;BME280;10074;52.018;4.726;2023-02-19T20:31:06;46463.88;;;-144.79;100.00
19827;BME280;10074;52.018;4.726;2023-02-19T20:36:07;46461.88;;;-144.79;100.00
19827;BME280;10074;52.018;4.726;2023-02-19T20:41:11;46461.88;;;-144.79;100.00
19827;BME280;10074;52.018;4.726;2023-02-19T20:46:11;46463.88;;;-144.79;100.00
19827;BME280;10074;52.018;4.726;2023-02-19T20:51:12;46465.88;;;-144.79;100.00
19827;BME280;10074;52.018;4.726;2023-02-19T20:56:12;46463.88;;;-144.79;100.00
19827;BME280;10074;52.018;4.726;2023-02-19T21:01:13;46461.88;;;-144.79;100.00
19827;BME280;10074;52.018;4.726;2023-02-19T21:06:13;46455.84;;;-144.79;100.00
19827;BME280;10074;52.018;4.726;2023-02-19T21:11:14;46461.88;;;-144.79;100.00
19827;BME280;10074;52.018;4.726;2023-02-19T21:16:14;46457.88;;;-144.79;100.00
19827;BME280;10074;52.018;4.726;2023-02-19T21:21:22;46459.88;;;-144.79;100.00
19827;BME280;10074;52.018;4.726;2023-02-19T21:26:31;46461.88;;;-144.79;100.00
19827;BME280;10074;52.018;4.726;2023-02-19T21:31:41;46459.88;;;-144.79;100.00
19827;BME280;10074;52.018;4.726;2023-02-19T21:36:42;46457.88;;;-144.79;100.00
19827;BME280;10074;52.018;4.726;2023-02-19T21:41:42;46459.88;;;-144.79;100.00
19827;BME280;10074;52.018;4.726;2023-02-19T21:46:43;46461.88;;;-144.79;100.00
19827;BME280;10074;52.018;4.726;2023-02-19T21:51:45;46465.88;;;-144.79;100.00
19827;BME280;10074;52.018;4.726;2023-02-19T21:56:47;46459.88;;;-144.79;100.00
19827;BME280;10074;52.018;4.726;2023-02-19T22:01:48;46463.88;;;-144.79;100.00
19827;BME280;10074;52.018;4.726;2023-02-19T22:06:53;46455.84;;;-144.79;100.00
19827;BME280;10074;52.018;4.726;2023-02-19T22:11:54;46457.88;;;-144.79;100.00
19827;BME280;10074;52.018;4.726;2023-02-19T22:16:54;46457.88;;;-144.79;100.00
19827;BME280;10074;52.018;4.726;2023-02-19T22:21:55;46459.88;;;-144.79;100.00
19827;BME280;10074;52.018;4.726;2023-02-19T22:26:56;46449.84;;;-144.79;100.00
19827;BME280;10074;52.018;4.726;2023-02-19T22:31:57;46455.84;;;-144.79;100.00
19827;BME280;10074;52.018;4.726;2023-02-19T22:36:57;46451.84;;;-144.79;100.00
19827;BME280;10074;52.018;4.726;2023-02-19T22:41:58;46455.84;;;-144.79;100.00
19827;BME280;10074;52.018;4.726;2023-02-19T22:46:58;46449.84;;;-144.79;100.00
19827;BME280;10074;52.018;4.726;2023-02-19T22:52:04;46453.84;;;-144.79;100.00
19827;BME280;10074;52.018;4.726;2023-02-19T22:57:06;46447.84;;;-144.79;100.00
19827;BME280;10074;52.018;4.726;2023-02-19T23:02:06;46451.84;;;-144.79;100.00
19827;BME280;10074;52.018;4.726;2023-02-19T23:07:07;46453.84;;;-144.79;100.00
19827;BME280;10074;52.018;4.726;2023-02-19T23:12:09;46451.84;;;-144.79;100.00
19827;BME280;10074;52.018;4.726;2023-02-19T23:17:10;46451.84;;;-144.79;100.00
19827;BME280;10074;52.018;4.726;2023-02-19T23:22:10;46451.84;;;-144.79;100.00
19827;BME280;10074;52.018;4.726;2023-02-19T23:27:10;46447.84;;;-144.79;100.00
19827;BME280;10074;52.018;4.726;2023-02-19T23:32:11;46449.84;;;-144.79;100.00
19827;BME280;10074;52.018;4.726;2023-02-19T23:37:11;46447.84;;;-144.79;100.00
19827;BME280;10074;52.018;4.726;2023-02-19T23:42:14;46449.84;;;-144.79;100.00
19827;BME280;10074;52.018;4.726;2023-02-19T23:47:16;46451.84;;;-144.79;100.00
19827;BME280;10074;52.018;4.726;2023-02-19T23:52:17;46449.84;;;-144.79;100.00
19827;BME280;10074;52.018;4.726;2023-02-19T23:57:17;46449.84;;;-144.79;100.00
